createdAt,value
2018-04-06T00:00:14.343Z,100685.50
2018-04-06T00:02:42.781Z,100688.08
2018-04-06T00:05:11.189Z,100686.31
2018-04-06T00:07:39.591Z,100688.38
2018-04-06T00:10:08.066Z,100683.70
2018-04-06T00:12:36.470Z,100686.09
2018-04-06T00:15:04.904Z,100694.41
2018-04-06T00:17:33.349Z,100694.21
2018-04-06T00:20:01.757Z,100696.27
2018-04-06T00:22:30.158Z,100698.30
2018-04-06T00:24:58.608Z,100697.52
2018-04-06T00:27:27.002Z,100699.72
2018-04-06T00:29:55.405Z,100697.34
2018-04-06T00:32:23.866Z,100699.83
2018-04-06T00:34:52.261Z,100705.91
2018-04-06T00:37:20.671Z,100698.23
2018-04-06T00:39:49.121Z,100691.09
2018-04-06T00:42:17.525Z,100702.86
2018-04-06T00:44:45.929Z,100696.06
2018-04-06T00:47:14.369Z,100707.31
2018-04-06T00:49:42.782Z,100701.05
2018-04-06T00:52:11.186Z,100703.37
2018-04-06T00:54:39.645Z,100699.00
2018-04-06T00:57:08.048Z,100704.81
2018-04-06T00:59:36.445Z,100704.08
2018-04-06T01:02:04.885Z,100703.90
2018-04-06T01:04:33.295Z,100706.94
2018-04-06T01:07:01.702Z,100702.58
2018-04-06T01:09:30.146Z,100704.19
2018-04-06T01:11:58.566Z,100699.19
2018-04-06T01:14:26.972Z,100700.16
2018-04-06T01:16:55.429Z,100696.55
2018-04-06T01:19:23.833Z,100703.80
2018-04-06T01:21:52.243Z,100707.19
2018-04-06T01:24:20.701Z,100700.53
2018-04-06T01:26:49.119Z,100710.53
2018-04-06T01:29:17.537Z,100711.25
2018-04-06T01:31:45.998Z,100705.97
2018-04-06T01:34:14.398Z,100707.89
2018-04-06T01:36:42.810Z,100709.69
2018-04-06T01:39:11.250Z,100711.13
2018-04-06T01:41:39.654Z,100707.91
2018-04-06T01:44:08.061Z,100706.84
2018-04-06T01:46:36.519Z,100707.48
2018-04-06T01:49:04.928Z,100706.31
2018-04-06T01:51:33.337Z,100710.73
2018-04-06T01:54:01.784Z,100710.27
2018-04-06T01:56:30.190Z,100712.41
2018-04-06T01:58:58.597Z,100716.75
2018-04-06T02:01:27.045Z,100707.28
2018-04-06T02:03:55.445Z,100717.23
2018-04-06T02:06:23.850Z,100713.61
2018-04-06T02:08:52.305Z,100716.03
2018-04-06T02:11:20.730Z,100729.44
2018-04-06T02:13:49.126Z,100728.63
2018-04-06T02:16:17.571Z,100734.70
2018-04-06T02:18:45.978Z,100734.17
2018-04-06T02:21:14.377Z,100732.70
2018-04-06T02:23:42.821Z,100735.55
2018-04-06T02:26:11.221Z,100737.52
2018-04-06T02:28:39.639Z,100738.23
2018-04-06T02:31:08.084Z,100741.11
2018-04-06T02:33:36.503Z,100744.86
2018-04-06T02:36:04.938Z,100743.13
2018-04-06T02:38:33.396Z,100744.36
2018-04-06T02:41:01.835Z,100745.05
2018-04-06T02:43:30.242Z,100743.72
2018-04-06T02:45:58.691Z,100746.86
2018-04-06T02:48:27.102Z,100745.41
2018-04-06T02:50:55.517Z,100748.27
2018-04-06T02:53:23.974Z,100744.66
2018-04-06T02:55:52.387Z,100746.95
2018-04-06T02:58:20.800Z,100749.71
2018-04-06T03:00:49.259Z,100745.98
2018-04-06T03:03:17.667Z,100748.00
2018-04-06T03:05:46.066Z,100746.69
2018-04-06T03:08:14.514Z,100743.55
2018-04-06T03:10:42.985Z,100749.72
2018-04-06T03:13:11.397Z,100749.91
2018-04-06T03:15:39.833Z,100753.25
2018-04-06T03:18:08.229Z,100755.37
2018-04-06T03:20:36.633Z,100754.13
2018-04-06T03:23:05.082Z,100759.20
2018-04-06T03:25:33.490Z,100754.36
2018-04-06T03:28:01.885Z,100750.20
2018-04-06T03:30:30.335Z,100758.03
2018-04-06T03:32:58.742Z,100757.03
2018-04-06T03:35:27.138Z,100763.36
2018-04-06T03:37:55.585Z,100754.00
2018-04-06T03:40:23.988Z,100758.39
2018-04-06T03:42:52.389Z,100754.59
2018-04-06T03:45:20.842Z,100758.70
2018-04-06T03:47:49.246Z,100755.34
2018-04-06T03:50:17.649Z,100760.79
2018-04-06T03:52:46.107Z,100757.25
2018-04-06T03:55:14.514Z,100758.69
2018-04-06T03:57:42.926Z,100753.53
2018-04-06T04:00:11.373Z,100756.08
2018-04-06T04:02:39.770Z,100759.61
2018-04-06T04:05:08.176Z,100761.94
2018-04-06T04:07:36.635Z,100759.50
2018-04-06T04:10:05.066Z,100764.97
2018-04-06T04:12:33.474Z,100758.75
2018-04-06T04:15:01.925Z,100762.25
2018-04-06T04:17:30.325Z,100758.83
2018-04-06T04:19:58.737Z,100764.88
2018-04-06T04:22:27.193Z,100761.19
2018-04-06T04:24:55.599Z,100763.81
2018-04-06T04:27:24.005Z,100757.29
2018-04-06T04:29:52.463Z,100757.70
2018-04-06T04:32:20.868Z,100760.00
2018-04-06T04:34:49.279Z,100756.58
2018-04-06T04:37:17.733Z,100762.61
2018-04-06T04:39:46.151Z,100759.81
2018-04-06T04:42:14.573Z,100762.52
2018-04-06T04:44:43.022Z,100762.63
2018-04-06T04:47:11.433Z,100767.11
2018-04-06T04:49:39.849Z,100775.50
2018-04-06T04:52:08.320Z,100775.03
2018-04-06T04:54:36.729Z,100776.30
2018-04-06T04:57:05.145Z,100773.80
2018-04-06T04:59:33.597Z,100778.59
2018-04-06T05:02:02.015Z,100775.48
2018-04-06T05:04:30.422Z,100781.95
2018-04-06T05:06:58.872Z,100784.19
2018-04-06T05:09:27.281Z,100782.22
2018-04-06T05:11:55.690Z,100794.22
2018-04-06T05:14:24.141Z,100788.91
2018-04-06T05:16:52.554Z,100789.22
2018-04-06T05:19:20.965Z,100785.20
2018-04-06T05:21:49.415Z,100790.88
2018-04-06T05:24:17.838Z,100793.95
2018-04-06T05:26:46.247Z,100806.88
2018-04-06T05:29:14.698Z,100812.83
2018-04-06T05:31:43.120Z,100807.64
2018-04-06T05:34:11.532Z,100811.38
2018-04-06T05:36:39.998Z,100818.09
2018-04-06T05:39:08.414Z,100814.03
2018-04-06T05:41:36.826Z,100817.14
2018-04-06T05:44:05.287Z,100827.58
2018-04-06T05:46:33.694Z,100821.91
2018-04-06T05:49:02.162Z,100828.37
2018-04-06T05:51:30.610Z,100832.34
2018-04-06T05:53:59.019Z,100834.42
2018-04-06T05:56:27.425Z,100840.55
2018-04-06T05:58:55.873Z,100837.17
2018-04-06T06:01:24.278Z,100837.18
2018-04-06T06:03:52.690Z,100838.51
2018-04-06T06:06:21.139Z,100844.98
2018-04-06T06:08:50.569Z,100843.39
2018-04-06T06:11:18.978Z,100841.95
2018-04-06T06:13:47.436Z,100843.26
2018-04-06T06:16:15.853Z,100849.67
2018-04-06T06:18:44.251Z,100858.02
2018-04-06T06:21:12.706Z,100865.46
2018-04-06T06:23:41.121Z,100872.86
2018-04-06T06:26:09.527Z,100872.03
2018-04-06T06:28:37.985Z,100881.05
2018-04-06T06:31:06.386Z,100875.12
2018-04-06T06:33:34.793Z,100873.22
2018-04-06T06:36:03.255Z,100879.12
2018-04-06T06:38:31.674Z,100871.06
2018-04-06T06:41:00.082Z,100869.75
2018-04-06T06:43:28.534Z,100858.56
2018-04-06T06:45:56.945Z,100861.81
2018-04-06T06:48:25.361Z,100858.25
2018-04-06T06:50:53.850Z,100858.58
2018-04-06T06:53:22.270Z,100858.27
2018-04-06T06:55:50.704Z,100859.33
2018-04-06T06:58:19.351Z,100859.69
2018-04-06T07:00:47.772Z,100863.42
2018-04-06T07:03:16.204Z,100861.45
2018-04-06T07:05:44.654Z,100862.70
2018-04-06T07:08:13.069Z,100863.84
2018-04-06T07:10:41.486Z,100859.42
2018-04-06T07:13:09.935Z,100858.48
2018-04-06T07:15:38.366Z,100854.63
2018-04-06T07:18:06.784Z,100854.27
2018-04-06T07:20:35.249Z,100856.76
2018-04-06T07:23:03.658Z,100857.28
2018-04-06T07:25:32.073Z,100857.06
2018-04-06T07:28:00.521Z,100844.98
2018-04-06T07:30:28.931Z,100840.97
2018-04-06T07:32:57.345Z,100841.67
2018-04-06T07:35:25.801Z,100836.22
2018-04-06T07:37:54.215Z,100829.66
2018-04-06T07:40:22.626Z,100825.33
2018-04-06T07:42:51.077Z,100834.47
2018-04-06T07:45:19.536Z,100837.96
2018-04-06T07:47:47.946Z,100839.75
2018-04-06T07:50:16.398Z,100837.68
2018-04-06T07:52:44.814Z,100838.76
2018-04-06T07:55:13.217Z,100834.78
2018-04-06T07:57:41.681Z,100842.09
2018-04-06T08:00:10.087Z,100842.23
2018-04-06T08:02:38.508Z,100842.01
2018-04-06T08:05:06.967Z,100847.39
2018-04-06T08:07:35.386Z,100849.08
2018-04-06T08:10:03.868Z,100851.22
2018-04-06T08:12:32.322Z,100845.75
2018-04-06T08:15:00.743Z,100842.15
2018-04-06T08:17:29.150Z,100834.20
2018-04-06T08:19:57.618Z,100846.45
2018-04-06T08:22:26.023Z,100839.66
2018-04-06T08:24:54.439Z,100839.23
2018-04-06T08:27:22.897Z,100834.60
2018-04-06T08:29:52.729Z,100830.13
2018-04-06T08:32:21.139Z,100829.21
2018-04-06T08:34:49.598Z,100831.50
2018-04-06T08:37:18.006Z,100829.47
2018-04-06T08:39:46.416Z,100823.69
2018-04-06T08:42:14.862Z,100830.02
2018-04-06T08:44:43.269Z,100823.84
2018-04-06T08:47:11.678Z,100823.63
2018-04-06T08:49:40.133Z,100820.55
2018-04-06T08:52:08.551Z,100826.08
2018-04-06T08:54:37.018Z,100824.91
2018-04-06T08:57:05.470Z,100817.27
2018-04-06T08:59:33.913Z,100820.79
2018-04-06T09:02:02.360Z,100820.16
2018-04-06T09:04:30.812Z,100819.20
2018-04-06T09:06:59.214Z,100815.56
2018-04-06T09:09:27.634Z,100806.17
2018-04-06T09:11:56.129Z,100809.72
2018-04-06T09:14:24.541Z,100807.96
2018-04-06T09:16:52.978Z,100799.97
2018-04-06T09:19:21.466Z,100803.84
2018-04-06T09:21:49.881Z,100792.44
2018-04-06T09:24:18.304Z,100803.08
2018-04-06T09:26:46.798Z,100796.11
2018-04-06T09:29:15.206Z,100786.34
2018-04-06T09:31:43.610Z,100790.91
2018-04-06T09:34:12.065Z,100783.24
2018-04-06T09:36:40.474Z,100780.19
2018-04-06T09:39:08.893Z,100783.30
2018-04-06T09:41:37.348Z,100781.61
2018-04-06T09:44:05.946Z,100773.28
2018-04-06T09:46:34.389Z,100777.97
2018-04-06T09:49:02.842Z,100774.52
2018-04-06T09:51:31.254Z,100768.75
2018-04-06T09:53:59.658Z,100768.80
2018-04-06T09:56:28.109Z,100768.32
2018-04-06T09:58:56.521Z,100768.94
2018-04-06T10:01:39.846Z,100762.72
2018-04-06T10:04:08.258Z,100762.02
2018-04-06T10:06:36.679Z,100760.72
2018-04-06T10:09:05.949Z,100767.91
2018-04-06T10:11:34.354Z,100758.17
2018-04-06T10:14:02.762Z,100756.47
2018-04-06T10:16:31.209Z,100757.29
2018-04-06T10:18:59.617Z,100754.16
2018-04-06T10:21:28.023Z,100748.98
2018-04-06T10:23:56.466Z,100744.52
2018-04-06T10:26:24.875Z,100752.44
2018-04-06T10:28:53.289Z,100758.36
2018-04-06T10:31:21.746Z,100746.56
2018-04-06T10:33:50.151Z,100750.09
2018-04-06T10:36:18.557Z,100749.42
2018-04-06T10:38:47.017Z,100743.57
2018-04-06T10:41:15.427Z,100737.48
2018-04-06T10:43:43.863Z,100735.21
2018-04-06T10:46:12.322Z,100732.80
2018-04-06T10:48:40.752Z,100733.72
2018-04-06T10:51:09.167Z,100727.94
2018-04-06T10:53:37.622Z,100719.38
2018-04-06T10:56:06.025Z,100718.81
2018-04-06T10:58:34.501Z,100718.09
2018-04-06T11:01:02.918Z,100720.09
2018-04-06T11:03:31.318Z,100720.58
2018-04-06T11:05:59.728Z,100719.81
2018-04-06T11:08:28.185Z,100720.08
2018-04-06T11:10:56.607Z,100719.30
2018-04-06T11:13:25.009Z,100715.41
2018-04-06T11:15:53.460Z,100708.70
2018-04-06T11:18:21.861Z,100708.46
2018-04-06T11:20:50.297Z,100699.01
2018-04-06T11:23:18.747Z,100696.04
2018-04-06T11:25:47.245Z,100692.19
2018-04-06T11:28:15.710Z,100696.73
2018-04-06T11:30:44.167Z,100694.77
2018-04-06T11:33:12.578Z,100683.96
2018-04-06T11:35:40.985Z,100684.72
2018-04-06T11:38:09.449Z,100684.66
2018-04-06T11:40:37.861Z,100679.34
2018-04-06T11:43:06.270Z,100678.13
2018-04-06T11:45:34.730Z,100680.75
2018-04-06T11:48:03.135Z,100675.88
2018-04-06T11:50:31.534Z,100675.48
2018-04-06T11:52:59.983Z,100673.09
2018-04-06T11:55:28.394Z,100666.77
2018-04-06T11:57:56.798Z,100669.05
2018-04-06T12:00:25.246Z,100662.64
2018-04-06T12:02:53.666Z,100653.95
2018-04-06T12:05:22.166Z,100656.64
2018-04-06T12:07:50.682Z,100654.75
2018-04-06T12:10:19.078Z,100652.45
2018-04-06T12:12:47.503Z,100652.55
2018-04-06T12:15:15.950Z,100649.07
2018-04-06T12:17:44.365Z,100646.95
2018-04-06T12:20:12.775Z,100649.30
2018-04-06T12:22:41.222Z,100644.80
2018-04-06T12:25:09.629Z,100643.68
2018-04-06T12:27:38.042Z,100642.77
2018-04-06T12:30:06.485Z,100641.42
2018-04-06T12:32:34.897Z,100634.28
2018-04-06T12:35:03.322Z,100629.97
2018-04-06T12:37:31.842Z,100631.55
2018-04-06T12:40:00.474Z,100617.66
2018-04-06T12:42:28.914Z,100611.31
2018-04-06T12:44:57.362Z,100606.87
2018-04-06T12:47:25.766Z,100601.56
2018-04-06T12:49:54.173Z,100597.50
2018-04-06T12:52:22.634Z,100593.83
2018-04-06T12:54:51.044Z,100592.94
2018-04-06T12:57:19.450Z,100589.91
2018-04-06T12:59:47.902Z,100591.77
2018-04-06T13:02:16.315Z,100588.22
2018-04-06T13:04:44.732Z,100584.11
2018-04-06T13:07:13.174Z,100588.47
2018-04-06T13:09:41.595Z,100579.89
2018-04-06T13:12:10.002Z,100575.89
2018-04-06T13:14:38.474Z,100578.01
2018-04-06T13:17:06.882Z,100569.61
2018-04-06T13:19:35.291Z,100565.11
2018-04-06T13:22:03.763Z,100569.49
2018-04-06T13:24:32.173Z,100569.71
2018-04-06T13:27:00.585Z,100558.83
2018-04-06T13:29:29.033Z,100559.14
2018-04-06T13:31:57.442Z,100546.83
2018-04-06T13:34:25.857Z,100549.52
2018-04-06T13:36:54.319Z,100545.55
2018-04-06T13:39:22.722Z,100543.02
2018-04-06T13:41:51.130Z,100542.91
2018-04-06T13:44:19.597Z,100538.89
2018-04-06T13:46:48.011Z,100530.14
2018-04-06T13:49:16.441Z,100527.18
2018-04-06T13:51:44.910Z,100530.18
2018-04-06T13:54:13.317Z,100520.31
2018-04-06T13:56:41.731Z,100508.30
2018-04-06T13:59:10.194Z,100506.98
2018-04-06T14:01:38.597Z,100502.80
2018-04-06T14:04:07.002Z,100500.45
2018-04-06T14:06:35.723Z,100500.52
2018-04-06T14:09:04.119Z,100500.89
2018-04-06T14:11:32.527Z,100503.36
2018-04-06T14:14:00.974Z,100493.95
2018-04-06T14:16:29.382Z,100490.06
2018-04-06T14:18:57.806Z,100501.87
2018-04-06T14:21:26.257Z,100498.70
2018-04-06T14:23:54.670Z,100493.41
2018-04-06T14:26:23.081Z,100500.16
2018-04-06T14:28:51.530Z,100502.38
2018-04-06T14:31:20.024Z,100501.02
2018-04-06T14:33:48.429Z,100499.68
2018-04-06T14:36:16.881Z,100493.83
2018-04-06T14:38:45.294Z,100492.02
2018-04-06T14:41:13.711Z,100486.77
2018-04-06T14:43:42.174Z,100479.58
2018-04-06T14:46:10.649Z,100479.59
2018-04-06T14:48:39.362Z,100471.11
2018-04-06T14:51:07.819Z,100470.13
2018-04-06T14:53:36.225Z,100463.31
2018-04-06T14:56:04.645Z,100464.81
2018-04-06T14:58:33.093Z,100464.25
2018-04-06T15:01:01.510Z,100462.84
2018-04-06T15:03:29.928Z,100459.20
2018-04-06T15:05:58.382Z,100452.91
2018-04-06T15:08:26.782Z,100461.39
2018-04-06T15:10:55.193Z,100454.84
2018-04-06T15:13:23.642Z,100454.77
2018-04-06T15:15:52.054Z,100453.40
2018-04-06T15:18:20.466Z,100450.23
2018-04-06T15:20:48.930Z,100454.35
2018-04-06T15:23:17.349Z,100450.64
2018-04-06T15:25:45.769Z,100458.81
2018-04-06T15:28:14.245Z,100458.05
2018-04-06T15:30:42.650Z,100456.78
2018-04-06T15:33:11.053Z,100440.66
2018-04-06T15:35:39.513Z,100441.34
2018-04-06T15:38:07.926Z,100427.55
2018-04-06T15:40:36.334Z,100424.95
2018-04-06T15:43:05.027Z,100430.82
2018-04-06T15:45:33.454Z,100427.38
2018-04-06T15:48:01.858Z,100430.49
2018-04-06T15:50:30.317Z,100432.48
2018-04-06T15:52:58.721Z,100424.77
2018-04-06T15:55:27.131Z,100423.77
2018-04-06T15:57:55.586Z,100417.81
2018-04-06T16:00:24.010Z,100411.82
2018-04-06T16:02:52.434Z,100410.48
2018-04-06T16:05:20.940Z,100405.04
2018-04-06T16:07:49.386Z,100406.38
2018-04-06T16:10:17.838Z,100397.47
2018-04-06T16:12:46.302Z,100393.09
2018-04-06T16:15:14.730Z,100397.22
2018-04-06T16:17:43.138Z,100392.41
2018-04-06T16:20:11.647Z,100389.27
2018-04-06T16:22:40.058Z,100393.70
2018-04-06T16:25:08.466Z,100389.57
2018-04-06T16:27:36.909Z,100382.61
2018-04-06T16:30:05.309Z,100385.30
2018-04-06T16:32:33.732Z,100379.81
2018-04-06T16:35:02.185Z,100373.51
2018-04-06T16:37:30.594Z,100370.64
2018-04-06T16:39:59.025Z,100373.33
2018-04-06T16:42:27.501Z,100361.00
2018-04-06T16:44:55.910Z,100359.55
2018-04-06T16:47:24.318Z,100353.07
2018-04-06T16:49:52.786Z,100347.45
2018-04-06T16:52:21.305Z,100351.45
2018-04-06T16:54:49.742Z,100348.98
2018-04-06T16:57:18.210Z,100337.89
2018-04-06T16:59:46.630Z,100338.51
2018-04-06T17:02:15.039Z,100337.97
2018-04-06T17:04:43.477Z,100329.97
2018-04-06T17:07:11.886Z,100333.27
2018-04-06T17:09:40.304Z,100331.47
2018-04-06T17:12:08.753Z,100319.77
2018-04-06T17:14:37.162Z,100326.63
2018-04-06T17:17:05.565Z,100326.30
2018-04-06T17:19:34.025Z,100317.70
2018-04-06T17:22:02.430Z,100313.94
2018-04-06T17:24:30.874Z,100313.41
2018-04-06T17:26:59.329Z,100313.45
2018-04-06T17:29:27.738Z,100320.86
2018-04-06T17:31:56.142Z,100319.72
2018-04-06T17:34:24.594Z,100328.30
2018-04-06T17:36:53.018Z,100327.48
2018-04-06T17:39:21.417Z,100321.91
2018-04-06T17:41:49.874Z,100320.85
2018-04-06T17:44:18.278Z,100326.91
2018-04-06T17:46:46.683Z,100327.16
2018-04-06T17:49:15.134Z,100329.86
2018-04-06T17:51:43.537Z,100323.27
2018-04-06T17:54:12.078Z,100327.17
2018-04-06T17:56:40.522Z,100333.22
2018-04-06T17:59:08.925Z,100335.87
2018-04-06T18:01:37.338Z,100335.92
2018-04-06T18:04:05.811Z,100330.99
2018-04-06T18:06:34.292Z,100343.67
2018-04-06T18:09:02.698Z,100345.64
2018-04-06T18:11:31.141Z,100339.74
2018-04-06T18:14:00.474Z,100332.70
2018-04-06T18:16:28.889Z,100345.70
2018-04-06T18:18:57.373Z,100338.71
2018-04-06T18:21:25.785Z,100341.19
2018-04-06T18:23:54.193Z,100344.27
2018-04-06T18:26:22.668Z,100346.17
2018-04-06T18:28:51.102Z,100347.89
2018-04-06T18:31:19.530Z,100353.09
2018-04-06T18:33:47.978Z,100351.66
2018-04-06T18:36:16.391Z,100348.42
2018-04-06T18:38:44.834Z,100352.80
2018-04-06T18:41:13.278Z,100353.25
2018-04-06T18:43:41.723Z,100359.93
2018-04-06T18:46:10.127Z,100361.00
2018-04-06T18:48:38.594Z,100362.22
2018-04-06T18:51:06.995Z,100364.17
2018-04-06T18:53:35.398Z,100363.14
2018-04-06T18:56:03.880Z,100361.47
2018-04-06T18:58:32.307Z,100362.89
2018-04-06T19:01:00.747Z,100361.34
2018-04-06T19:03:29.197Z,100357.97
2018-04-06T19:05:57.598Z,100357.73
2018-04-06T19:08:26.022Z,100351.07
2018-04-06T19:10:54.481Z,100347.62
2018-04-06T19:13:22.886Z,100353.76
2018-04-06T19:15:51.290Z,100358.23
2018-04-06T19:18:19.758Z,100354.73
2018-04-06T19:20:48.153Z,100348.55
2018-04-06T19:23:16.557Z,100355.94
2018-04-06T19:25:45.022Z,100354.04
2018-04-06T19:28:13.418Z,100363.73
2018-04-06T19:30:41.821Z,100357.97
2018-04-06T19:33:10.261Z,100360.14
2018-04-06T19:35:38.664Z,100358.87
2018-04-06T19:38:07.094Z,100350.44
2018-04-06T19:40:35.544Z,100352.11
2018-04-06T19:43:03.941Z,100348.67
2018-04-06T19:45:32.346Z,100349.28
2018-04-06T19:48:00.789Z,100347.66
2018-04-06T19:50:29.193Z,100347.42
2018-04-06T19:52:57.597Z,100346.18
2018-04-06T19:55:26.033Z,100345.83
2018-04-06T19:57:54.437Z,100350.73
2018-04-06T20:00:22.854Z,100344.44
2018-04-06T20:02:51.298Z,100341.88
2018-04-06T20:05:19.693Z,100345.41
2018-04-06T20:07:48.099Z,100345.02
2018-04-06T20:10:16.545Z,100345.89
2018-04-06T20:12:44.964Z,100343.36
2018-04-06T20:15:13.393Z,100336.95
2018-04-06T20:17:41.850Z,100337.45
2018-04-06T20:20:10.255Z,100332.37
2018-04-06T20:22:38.674Z,100333.06
2018-04-06T20:25:07.149Z,100326.82
2018-04-06T20:27:35.571Z,100328.06
2018-04-06T20:30:04.001Z,100321.10
2018-04-06T20:32:32.457Z,100323.17
2018-04-06T20:35:00.878Z,100317.02
2018-04-06T20:37:29.301Z,100315.63
2018-04-06T20:39:57.778Z,100309.53
2018-04-06T20:42:26.186Z,100312.99
2018-04-06T20:44:54.586Z,100308.13
2018-04-06T20:47:23.134Z,100311.72
2018-04-06T20:49:51.533Z,100307.72
2018-04-06T20:52:19.940Z,100308.70
2018-04-06T20:54:48.386Z,100300.94
2018-04-06T20:57:16.789Z,100301.36
2018-04-06T20:59:45.189Z,100301.27
2018-04-06T21:02:13.637Z,100295.95
2018-04-06T21:04:42.041Z,100294.01
2018-04-06T21:07:10.434Z,100292.59
2018-04-06T21:09:38.882Z,100289.98
2018-04-06T21:12:07.298Z,100290.95
2018-04-06T21:14:35.702Z,100283.76
2018-04-06T21:17:04.154Z,100275.32
2018-04-06T21:19:32.556Z,100272.61
2018-04-06T21:22:00.973Z,100272.88
2018-04-06T21:24:29.418Z,100272.39
2018-04-06T21:26:57.834Z,100262.80
2018-04-06T21:29:26.238Z,100265.15
2018-04-06T21:31:54.693Z,100267.03
2018-04-06T21:34:23.101Z,100268.03
2018-04-06T21:36:51.503Z,100258.64
2018-04-06T21:39:19.950Z,100256.48
2018-04-06T21:41:48.354Z,100257.72
2018-04-06T21:44:16.757Z,100250.66
2018-04-06T21:46:45.204Z,100256.25
2018-04-06T21:49:13.602Z,100262.39
2018-04-06T21:51:42.007Z,100264.33
2018-04-06T21:54:10.454Z,100260.29
2018-04-06T21:56:38.873Z,100264.78
2018-04-06T21:59:07.294Z,100262.25
2018-04-06T22:01:35.768Z,100264.03
2018-04-06T22:04:04.188Z,100253.39
2018-04-06T22:06:32.589Z,100252.75
2018-04-06T22:09:01.021Z,100256.27
2018-04-06T22:11:29.414Z,100251.91
2018-04-06T22:13:57.838Z,100255.55
2018-04-06T22:16:26.297Z,100248.15
2018-04-06T22:18:54.697Z,100253.18
2018-04-06T22:21:23.102Z,100254.74
2018-04-06T22:23:51.561Z,100254.72
2018-04-06T22:26:19.965Z,100241.44
2018-04-06T22:28:48.366Z,100243.05
2018-04-06T22:31:16.829Z,100248.83
2018-04-06T22:33:45.230Z,100243.00
2018-04-06T22:36:13.632Z,100234.34
2018-04-06T22:38:42.098Z,100230.67
2018-04-06T22:41:10.498Z,100237.21
2018-04-06T22:43:38.921Z,100229.29
2018-04-06T22:46:07.365Z,100221.09
2018-04-06T22:48:35.770Z,100212.52
2018-04-06T22:51:04.181Z,100209.42
2018-04-06T22:53:32.618Z,100211.71
2018-04-06T22:56:01.018Z,100199.26
2018-04-06T22:58:29.417Z,100199.81
2018-04-06T23:00:57.875Z,100203.67
2018-04-06T23:03:26.278Z,100199.69
2018-04-06T23:05:54.677Z,100197.86
2018-04-06T23:08:23.124Z,100191.64
2018-04-06T23:10:51.525Z,100186.64
2018-04-06T23:13:19.923Z,100181.14
2018-04-06T23:15:48.357Z,100185.28
2018-04-06T23:18:16.757Z,100180.94
2018-04-06T23:20:45.159Z,100189.37
2018-04-06T23:23:13.598Z,100182.39
2018-04-06T23:25:42.005Z,100187.55
2018-04-06T23:28:10.410Z,100181.53
2018-04-06T23:30:38.854Z,100176.42
2018-04-06T23:33:07.249Z,100171.04
2018-04-06T23:35:35.753Z,100169.66
2018-04-06T23:38:04.196Z,100168.53
2018-04-06T23:40:32.605Z,100157.57
2018-04-06T23:43:01.006Z,100149.52
2018-04-06T23:45:29.461Z,100148.02
2018-04-06T23:47:57.874Z,100151.53
2018-04-06T23:50:26.269Z,100141.61
2018-04-06T23:52:54.709Z,100137.48
2018-04-06T23:55:23.187Z,100136.27
2018-04-06T23:57:51.589Z,100130.41
